Time;durP1;ratioP1;P1;durP2;ratioP2;P2;SDS_P1;SDS_P2;PMS_P1;PMS_P2;Temp;Humidity;BMP_temperature;BMP_pressure;BME280_temperature;BME280_humidity;BME280_pressure;Samples;Min_cycle;Max_cycle;Signal;HPM_P1;HPM_P2
2023/06/20 00:01:49;;;;;;;13.90;9.90;;;;;;;13.58;100.00;97389.77;110404;1239;71322;-69
2023/06/20 00:04:18;;;;;;;;;;;;;;;13.55;100.00;97393.36;110661;1238;69067;-69
2023/06/20 00:06:49;;;;;;;13.40;10.80;;;;;;;13.52;100.00;97389.26;110478;1239;69266;-69
2023/06/20 00:09:19;;;;;;;11.90;9.70;;;;;;;13.50;100.00;97385.49;110401;1240;59754;-69
2023/06/20 00:11:49;;;;;;;12.00;9.60;;;;;;;13.48;100.00;97387.73;110382;1238;59677;-69
2023/06/20 00:14:19;;;;;;;15.00;9.20;;;;;;;13.48;100.00;97387.27;110325;1241;72136;-69
2023/06/20 00:16:49;;;;;;;;;;;;;;;13.45;100.00;97387.51;110324;1241;69820;-69
2023/06/20 00:19:19;;;;;;;11.90;9.30;;;;;;;13.44;100.00;97388.70;110335;1241;68265;-69
2023/06/20 00:21:49;;;;;;;12.70;9.20;;;;;;;13.40;100.00;97389.91;110315;1241;59769;-69
2023/06/20 00:24:21;;;;;;;13.80;10.80;;;;;;;13.37;100.00;97399.20;110456;1238;59788;-69
2023/06/20 00:26:52;;;;;;;13.20;9.70;;;;;;;13.34;100.00;97398.41;110331;1238;71722;-69
2023/06/20 00:29:22;;;;;;;12.30;9.30;;;;;;;13.31;100.00;97396.09;110417;1240;69063;-69
2023/06/20 00:31:53;;;;;;;12.70;10.30;;;;;;;13.28;100.00;97396.14;110474;1241;69333;-71
2023/06/20 00:34:27;;;;;;;13.40;10.60;;;;;;;13.24;100.00;97390.70;110350;1241;59642;-70
2023/06/20 00:36:57;;;;;;;15.10;11.30;;;;;;;13.22;100.00;97394.35;110133;1244;59729;-70
2023/06/20 00:39:30;;;;;;;13.60;9.30;;;;;;;13.18;100.00;97394.67;110277;1241;70541;-69
2023/06/20 00:42:00;;;;;;;14.20;10.00;;;;;;;13.17;100.00;97395.25;110516;1241;68190;-69
2023/06/20 00:44:30;;;;;;;13.70;10.20;;;;;;;13.18;100.00;97391.73;110360;1242;69283;-69
2023/06/20 00:47:01;;;;;;;12.90;10.20;;;;;;;13.17;100.00;97389.34;110178;1244;59735;-69
2023/06/20 00:49:32;;;;;;;13.40;10.30;;;;;;;13.15;100.00;97388.09;110331;1241;59624;-69
2023/06/20 00:52:05;;;;;;;15.10;12.10;;;;;;;13.12;100.00;97385.17;110259;1239;70687;-69
2023/06/20 00:54:35;;;;;;;15.80;11.70;;;;;;;13.08;100.00;97381.20;110401;1240;68460;-70
2023/06/20 00:57:07;;;;;;;16.50;12.30;;;;;;;13.05;100.00;97380.31;110482;1238;68362;-70
2023/06/20 00:59:46;;;;;;;14.50;10.20;;;;;;;13.05;100.00;97379.36;110310;1242;59772;-69
2023/06/20 01:02:17;;;;;;;13.40;10.30;;;;;;;13.03;100.00;97384.57;110324;1240;59734;-69
2023/06/20 01:04:49;;;;;;;13.00;9.90;;;;;;;12.99;100.00;97385.39;110462;1240;70699;-69
2023/06/20 01:07:40;;;;;;;15.90;11.80;;;;;;;12.95;100.00;97381.70;110533;1241;69076;-70
2023/06/20 01:10:31;;;;;;;12.60;9.80;;;;;;;12.93;100.00;97383.27;110654;1239;68324;-69
2023/06/20 01:13:12;;;;;;;15.20;11.40;;;;;;;12.91;100.00;97378.77;110440;1237;59734;-70
2023/06/20 01:15:45;;;;;;;13.60;10.30;;;;;;;12.89;100.00;97381.02;110433;1238;59689;-69
2023/06/20 01:18:53;;;;;;;13.60;10.50;;;;;;;12.85;100.00;97380.26;110583;1240;71382;-69
2023/06/20 01:21:36;;;;;;;14.00;10.40;;;;;;;12.82;100.00;97379.46;110527;1237;69421;-69
2023/06/20 01:24:14;;;;;;;13.00;10.30;;;;;;;12.80;100.00;97378.92;110441;1242;69287;-69
2023/06/20 01:27:01;;;;;;;17.00;12.00;;;;;;;12.78;100.00;97377.58;110427;1238;59710;-69
2023/06/20 01:29:44;;;;;;;16.80;12.20;;;;;;;12.73;100.00;97378.42;110573;1241;59671;-69
2023/06/20 01:32:20;;;;;;;14.90;11.20;;;;;;;12.70;100.00;97376.63;110482;1238;70446;-69
2023/06/20 01:34:56;;;;;;;14.20;10.70;;;;;;;12.68;100.00;97377.97;110569;1244;68322;-68
2023/06/20 01:37:31;;;;;;;13.60;10.60;;;;;;;12.67;100.00;97375.62;110161;1243;69297;-69
2023/06/20 01:40:05;;;;;;;13.70;10.40;;;;;;;12.68;100.00;97372.42;110211;1238;59680;-70
2023/06/20 01:42:38;;;;;;;14.30;11.90;;;;;;;12.67;100.00;97374.23;110241;1241;59660;-70
2023/06/20 01:45:10;;;;;;;12.70;9.90;;;;;;;12.65;100.00;97368.63;110251;1239;71212;-71
2023/06/20 01:47:42;;;;;;;16.00;12.00;;;;;;;12.63;100.00;97365.79;110254;1241;69269;-69
2023/06/20 01:50:15;;;;;;;16.70;11.20;;;;;;;12.60;100.00;97366.41;110279;1241;68712;-69
2023/06/20 01:52:49;;;;;;;12.40;10.50;;;;;;;12.54;100.00;97370.04;110319;1239;59733;-69
2023/06/20 01:55:21;;;;;;;15.00;11.30;;;;;;;12.51;100.00;97372.92;110373;1240;59660;-69
2023/06/20 01:57:57;;;;;;;15.30;11.30;;;;;;;12.47;100.00;97373.73;110474;1240;69595;-69
2023/06/20 02:00:29;;;;;;;16.20;11.10;;;;;;;12.45;100.00;97372.39;110342;1239;69100;-69
2023/06/20 02:03:01;;;;;;;12.50;10.10;;;;;;;12.42;100.00;97373.87;110292;1241;69322;-69
2023/06/20 02:05:32;;;;;;;16.20;10.90;;;;;;;12.39;100.00;97371.79;110398;1244;59690;-69
2023/06/20 02:08:05;;;;;;;14.30;11.90;;;;;;;12.37;100.00;97371.05;110673;1239;59668;-69
2023/06/20 02:10:37;;;;;;;13.10;10.70;;;;;;;12.34;100.00;97373.44;110567;1238;71390;-69
2023/06/20 02:13:09;;;;;;;14.40;10.50;;;;;;;12.31;100.00;97374.87;110621;1239;69124;-69
2023/06/20 02:15:44;;;;;;;15.40;11.50;;;;;;;12.26;100.00;97373.86;110572;1240;69120;-71
2023/06/20 02:18:15;;;;;;;13.50;10.20;;;;;;;12.22;100.00;97373.30;110531;1240;59699;-69
2023/06/20 02:20:55;;;;;;;14.60;11.20;;;;;;;12.20;100.00;97371.58;110693;1239;59699;-69
2023/06/20 02:23:28;;;;;;;15.60;10.80;;;;;;;12.18;100.00;97367.67;110564;1238;71436;-69
2023/06/20 02:26:14;;;;;;;13.90;10.30;;;;;;;12.19;100.00;97365.17;110565;1241;69245;-69
2023/06/20 02:28:49;;;;;;;13.10;9.40;;;;;;;12.17;100.00;97367.12;110593;1238;69440;-69
2023/06/20 02:31:24;;;;;;;16.00;10.30;;;;;;;12.15;100.00;97370.76;110505;1241;59720;-69
2023/06/20 02:33:58;;;;;;;12.80;9.10;;;;;;;12.13;100.00;97375.46;110539;1240;59632;-70
2023/06/20 02:36:30;;;;;;;14.60;11.40;;;;;;;12.10;100.00;97380.23;110206;1243;70719;-70
2023/06/20 02:39:04;;;;;;;19.00;13.10;;;;;;;12.08;100.00;97388.21;110184;1244;67306;-69
2023/06/20 02:41:34;;;;;;;19.00;13.00;;;;;;;12.11;100.00;97395.90;110309;1238;67404;-69
2023/06/20 02:44:06;;;;;;;20.80;14.50;;;;;;;12.13;100.00;97398.69;110590;1241;59749;-69
2023/06/20 02:46:45;;;;;;;19.40;14.20;;;;;;;12.16;100.00;97400.49;110230;1238;59743;-69
2023/06/20 02:49:22;;;;;;;23.20;16.10;;;;;;;12.21;100.00;97398.36;110028;1244;71320;-69
2023/06/20 02:52:11;;;;;;;19.70;13.70;;;;;;;12.27;100.00;97397.58;110407;1240;69251;-69
2023/06/20 02:54:55;;;;;;;22.50;15.50;;;;;;;12.29;100.00;97392.50;110291;1239;68174;-69
2023/06/20 02:57:30;;;;;;;16.50;12.50;;;;;;;12.28;100.00;97392.80;110396;1240;60087;-69
2023/06/20 03:00:09;;;;;;;17.30;13.20;;;;;;;12.24;100.00;97393.09;110472;1240;59688;-69
2023/06/20 03:02:46;;;;;;;13.00;10.20;;;;;;;12.19;100.00;97389.64;110407;1241;70651;-69
2023/06/20 03:05:20;;;;;;;14.60;10.00;;;;;;;12.16;100.00;97387.73;110134;1243;68514;-69
2023/06/20 03:07:51;;;;;;;16.60;12.20;;;;;;;12.16;100.00;97394.98;110454;1240;69266;-70
2023/06/20 03:10:23;;;;;;;17.30;13.40;;;;;;;12.19;100.00;97403.77;110229;1244;59734;-70
2023/06/20 03:12:53;;;;;;;14.00;10.70;;;;;;;12.18;100.00;97411.18;110321;1239;59727;-70
2023/06/20 03:15:23;;;;;;;15.10;11.50;;;;;;;12.20;100.00;97413.44;110301;1242;71953;-69
2023/06/20 03:17:53;;;;;;;;;;;;;;;12.23;100.00;97420.74;110305;1241;69252;-70
2023/06/20 03:20:24;;;;;;;17.10;11.50;;;;;;;12.26;100.00;97427.56;110306;1238;68561;-69
2023/06/20 03:22:56;;;;;;;18.90;13.00;;;;;;;12.30;100.00;97432.30;110062;1243;60042;-70
2023/06/20 03:25:26;;;;;;;18.40;14.10;;;;;;;12.34;100.00;97442.13;110204;1243;59733;-70
2023/06/20 03:27:56;;;;;;;15.10;10.70;;;;;;;12.33;100.00;97448.45;110310;1246;71319;-71
2023/06/20 03:30:27;;;;;;;13.20;10.20;;;;;;;12.34;100.00;97446.98;110145;1240;68373;-68
2023/06/20 03:32:58;;;;;;;15.30;11.50;;;;;;;12.37;100.00;97441.84;110151;1243;68583;-69
2023/06/20 03:35:29;;;;;;;14.60;11.00;;;;;;;12.40;100.00;97445.23;110258;1241;59754;-68
2023/06/20 03:37:59;;;;;;;14.00;10.70;;;;;;;12.42;100.00;97446.88;110262;1239;59692;-69
2023/06/20 03:40:29;;;;;;;;;;;;;;;12.44;100.00;97448.63;110404;1241;70954;-69
2023/06/20 03:42:59;;;;;;;12.60;10.00;;;;;;;12.47;100.00;97460.65;110197;1243;69303;-69
2023/06/20 03:45:30;;;;;;;14.50;11.50;;;;;;;12.53;100.00;97462.45;110259;1241;68436;-69
2023/06/20 03:47:59;;;;;;;14.70;10.80;;;;;;;12.59;100.00;97456.02;110180;1243;59715;-69
2023/06/20 03:50:30;;;;;;;14.90;10.90;;;;;;;12.66;100.00;97460.64;110330;1241;59675;-69
2023/06/20 03:53:01;;;;;;;13.70;10.50;;;;;;;12.76;100.00;97462.66;110560;1240;70623;-69
2023/06/20 03:55:31;;;;;;;13.90;10.60;;;;;;;12.86;100.00;97466.21;110318;1241;68410;-69
2023/06/20 03:58:00;;;;;;;11.30;9.70;;;;;;;12.94;100.00;97469.56;110471;1239;68532;-69
2023/06/20 04:00:30;;;;;;;;;;;;;;;13.04;100.00;97477.52;110582;1241;59665;-69
2023/06/20 04:03:01;;;;;;;;;;;;;;;13.17;100.00;97482.09;110379;1241;59676;-69
2023/06/20 04:05:31;;;;;;;12.60;9.30;;;;;;;13.29;100.00;97475.37;110313;1242;69676;-68
2023/06/20 04:08:01;;;;;;;13.10;10.10;;;;;;;13.41;100.00;97474.49;110543;1241;68692;-70
2023/06/20 04:10:31;;;;;;;15.60;11.80;;;;;;;13.54;100.00;97477.10;110422;1241;69245;-71
2023/06/20 04:13:00;;;;;;;15.60;12.00;;;;;;;13.67;100.00;97481.27;110212;1240;59678;-68
2023/06/20 04:15:30;;;;;;;15.00;11.10;;;;;;;13.80;100.00;97487.73;110295;1241;59652;-69
2023/06/20 04:18:00;;;;;;;13.10;10.40;;;;;;;13.92;100.00;97491.95;110275;1240;70606;-70
2023/06/20 04:20:31;;;;;;;14.10;10.80;;;;;;;14.02;100.00;97491.75;110361;1239;69242;-70
2023/06/20 04:23:01;;;;;;;11.60;9.30;;;;;;;14.10;100.00;97493.86;110258;1240;70220;-70
2023/06/20 04:25:31;;;;;;;14.40;10.50;;;;;;;14.16;100.00;97496.71;110170;1243;59748;-69
2023/06/20 04:28:01;;;;;;;12.00;10.00;;;;;;;14.23;100.00;97496.08;109916;1238;623409;-70
2023/06/20 04:30:40;;;;;;;12.90;10.20;;;;;;;14.32;100.00;97495.72;110533;1241;69807;-69
2023/06/20 04:33:10;;;;;;;15.20;12.10;;;;;;;14.42;100.00;97496.56;110186;1241;68151;-69
2023/06/20 04:35:40;;;;;;;13.70;10.50;;;;;;;14.52;100.00;97495.41;110543;1242;69655;-69
2023/06/20 04:38:13;;;;;;;12.90;10.20;;;;;;;14.63;100.00;97498.62;110537;1242;59750;-69
2023/06/20 04:40:44;;;;;;;11.40;9.80;;;;;;;14.71;100.00;97494.71;110165;1244;59708;-70
2023/06/20 04:43:14;;;;;;;11.10;9.20;;;;;;;14.84;100.00;97498.38;110206;1239;71269;-69
2023/06/20 04:45:43;;;;;;;13.90;11.10;;;;;;;14.93;100.00;97493.52;110314;1239;70042;-70
2023/06/20 04:48:13;;;;;;;14.20;10.60;;;;;;;15.02;100.00;97492.85;110128;1244;68170;-69
2023/06/20 04:50:43;;;;;;;14.20;11.40;;;;;;;15.13;100.00;97491.66;110180;1242;59703;-71
2023/06/20 04:53:15;;;;;;;13.60;11.20;;;;;;;15.24;100.00;97490.56;110482;1241;59683;-68
2023/06/20 04:55:45;;;;;;;12.20;10.50;;;;;;;15.29;100.00;97495.38;110342;1241;72065;-70
2023/06/20 04:58:15;;;;;;;12.50;10.10;;;;;;;15.41;100.00;97500.57;110315;1241;69808;-71
2023/06/20 05:00:45;;;;;;;17.30;11.10;;;;;;;15.55;100.00;97499.31;110191;1241;69902;-67
2023/06/20 05:03:14;;;;;;;11.30;9.80;;;;;;;15.71;100.00;97504.75;110304;1240;59756;-70
2023/06/20 05:05:44;;;;;;;;;;;;;;;15.89;100.00;97505.66;110340;1241;59684;-68
2023/06/20 05:08:13;;;;;;;12.30;10.50;;;;;;;16.10;100.00;97506.35;110190;1244;71507;-67
2023/06/20 05:10:43;;;;;;;10.20;8.80;;;;;;;16.33;100.00;97507.38;110251;1241;68528;-71
2023/06/20 05:13:13;;;;;;;11.60;9.30;;;;;;;16.63;100.00;97509.92;110352;1241;68596;-70
2023/06/20 05:15:43;;;;;;;10.80;9.10;;;;;;;17.09;100.00;97515.72;110292;1241;59761;-68
2023/06/20 05:18:13;;;;;;;8.80;7.90;;;;;;;17.62;100.00;97519.69;110186;1240;59638;-69
2023/06/20 05:20:42;;;;;;;;;;;;;;;18.12;100.00;97526.13;110302;1241;70627;-77
2023/06/20 05:23:11;;;;;;;9.70;8.30;;;;;;;18.29;100.00;97528.61;110290;1241;69806;-70
2023/06/20 05:25:41;;;;;;;12.30;9.90;;;;;;;18.34;100.00;97528.14;110340;1241;69270;-71
2023/06/20 05:28:10;;;;;;;11.60;9.80;;;;;;;18.31;100.00;97528.25;110437;1240;59745;-70
2023/06/20 05:30:39;;;;;;;10.70;9.60;;;;;;;18.16;99.97;97527.40;110348;1239;60007;-73
2023/06/20 05:33:08;;;;;;;9.80;8.50;;;;;;;18.06;100.00;97526.05;110504;1239;70396;-72
2023/06/20 05:35:37;;;;;;;10.40;8.20;;;;;;;17.95;100.00;97524.80;110440;1239;69596;-74
2023/06/20 05:38:06;;;;;;;10.00;8.50;;;;;;;17.97;100.00;97520.56;110424;1241;69923;-74
2023/06/20 05:40:36;;;;;;;11.60;9.30;;;;;;;17.92;100.00;97514.03;110390;1241;59689;-74
2023/06/20 05:43:05;;;;;;;10.20;8.60;;;;;;;17.95;100.00;97514.98;110308;1241;59681;-72
2023/06/20 05:45:34;;;;;;;11.30;8.60;;;;;;;17.90;100.00;97513.55;110464;1241;71500;-73
2023/06/20 05:48:03;;;;;;;9.70;7.70;;;;;;;17.97;100.00;97515.98;110423;1241;69949;-72
2023/06/20 05:50:33;;;;;;;9.70;8.60;;;;;;;18.01;99.84;97514.02;110282;1241;69345;-73
2023/06/20 05:53:03;;;;;;;10.80;8.70;;;;;;;18.08;99.75;97518.40;110271;1241;59740;-75
2023/06/20 05:55:33;;;;;;;10.90;9.60;;;;;;;18.22;99.98;97518.91;110245;1241;59745;-72
2023/06/20 05:58:02;;;;;;;10.70;9.10;;;;;;;18.20;98.97;97521.55;110292;1239;71406;-73
2023/06/20 06:00:33;;;;;;;10.90;8.60;;;;;;;18.26;99.32;97517.64;110273;1241;68367;-73
2023/06/20 06:03:02;;;;;;;9.60;8.60;;;;;;;18.38;98.54;97517.30;110264;1241;69093;-73
2023/06/20 06:05:31;;;;;;;10.90;7.60;;;;;;;18.46;98.48;97515.91;110432;1241;59673;-74
2023/06/20 06:08:00;;;;;;;9.60;7.90;;;;;;;18.61;97.57;97517.19;110261;1241;59755;-70
2023/06/20 06:10:30;;;;;;;9.20;7.80;;;;;;;18.73;96.53;97521.09;110313;1241;71959;-69
2023/06/20 06:12:59;;;;;;;9.30;8.20;;;;;;;18.86;95.25;97521.31;110315;1240;69198;-70
2023/06/20 06:15:28;;;;;;;8.70;7.70;;;;;;;18.94;94.65;97523.77;110289;1241;69104;-70
2023/06/20 06:17:57;;;;;;;10.00;8.80;;;;;;;18.94;94.60;97517.85;110202;1241;59707;-69
2023/06/20 06:20:28;;;;;;;8.40;7.50;;;;;;;18.97;94.85;97518.55;110384;1240;59684;-71
2023/06/20 06:22:58;;;;;;;8.20;7.30;;;;;;;19.28;94.13;97513.86;110321;1241;70645;-71
2023/06/20 06:25:27;;;;;;;10.60;8.80;;;;;;;19.60;93.50;97518.53;110327;1241;69979;-71
2023/06/20 06:27:56;;;;;;;11.30;7.70;;;;;;;19.82;91.48;97523.21;110214;1242;69314;-70
2023/06/20 06:30:25;;;;;;;7.40;6.60;;;;;;;20.13;89.93;97527.95;110469;1242;59731;-71
2023/06/20 06:32:55;;;;;;;8.00;7.00;;;;;;;20.66;86.62;97527.42;110454;1240;59636;-73
2023/06/20 06:35:25;;;;;;;;;;;;;;;21.05;81.64;97527.84;110582;1241;70535;-71
2023/06/20 06:37:56;;;;;;;9.30;8.40;;;;;;;21.39;80.23;97526.26;110452;1241;69222;-71
2023/06/20 06:40:25;;;;;;;7.60;6.80;;;;;;;21.71;81.41;97529.77;110584;1239;68316;-73
2023/06/20 06:42:54;;;;;;;7.80;6.80;;;;;;;22.15;78.33;97538.14;110424;1241;59673;-73
2023/06/20 06:45:24;;;;;;;7.40;6.60;;;;;;;22.29;76.87;97543.07;110268;1240;59728;-72
2023/06/20 06:47:54;;;;;;;8.00;6.20;;;;;;;22.34;73.82;97544.79;110300;1241;71378;-74
2023/06/20 06:50:24;;;;;;;7.90;6.50;;;;;;;22.66;72.40;97544.77;110224;1243;69246;-71
2023/06/20 06:52:53;;;;;;;7.40;6.40;;;;;;;22.91;72.86;97546.46;110228;1240;69608;-71
2023/06/20 06:55:24;;;;;;;6.90;6.10;;;;;;;23.10;71.23;97538.75;110290;1245;59678;-72
2023/06/20 06:58:02;;;;;;;7.20;5.80;;;;;;;23.71;73.28;97530.66;110282;1239;59685;-69
2023/06/20 07:00:32;;;;;;;6.40;5.80;;;;;;;24.23;70.01;97525.90;110341;1239;70555;-74
2023/06/20 07:03:01;;;;;;;6.00;5.40;;;;;;;24.67;69.19;97519.97;110305;1241;69254;-71
2023/06/20 07:05:30;;;;;;;;;;;;;;;25.07;64.10;97513.95;110339;1241;69335;-71
2023/06/20 07:08:00;;;;;;;7.70;6.50;;;;;;;25.32;61.99;97508.10;110276;1242;59761;-72
2023/06/20 07:10:30;;;;;;;6.70;5.90;;;;;;;25.35;60.67;97504.31;110315;1241;59701;-73
2023/06/20 07:13:05;;;;;;;7.10;6.40;;;;;;;25.35;59.46;97507.70;110291;1241;71987;-72
2023/06/20 07:15:35;;;;;;;7.30;6.60;;;;;;;25.07;59.36;97508.85;110314;1241;70298;-72
2023/06/20 07:18:04;;;;;;;7.20;6.50;;;;;;;24.78;61.20;97513.21;110291;1243;69414;-73
2023/06/20 07:20:35;;;;;;;6.40;5.50;;;;;;;24.86;63.10;97517.07;110302;1241;59734;-72
2023/06/20 07:23:04;;;;;;;6.20;5.60;;;;;;;24.35;62.46;97519.66;110279;1241;59683;-70
2023/06/20 07:25:33;;;;;;;;;;;;;;;24.87;62.68;97522.91;110429;1241;70649;-73
2023/06/20 07:28:02;;;;;;;6.20;5.60;;;;;;;24.79;60.60;97519.83;110356;1240;67467;-72
2023/06/20 07:30:31;;;;;;;6.50;5.90;;;;;;;24.90;61.11;97521.85;110398;1242;70372;-73
2023/06/20 07:33:00;;;;;;;6.80;6.20;;;;;;;25.18;60.79;97519.26;110493;1241;59682;-71
2023/06/20 07:35:29;;;;;;;6.20;5.60;;;;;;;25.12;60.14;97527.89;110293;1241;59737;-71
2023/06/20 07:37:58;;;;;;;5.90;5.20;;;;;;;25.09;59.99;97524.66;110406;1241;71436;-73
2023/06/20 07:40:27;;;;;;;6.00;5.00;;;;;;;25.23;60.02;97529.94;110474;1241;69691;-73
2023/06/20 07:42:56;;;;;;;6.00;5.40;;;;;;;25.48;58.69;97529.30;110416;1240;68542;-73
2023/06/20 07:45:25;;;;;;;;;;;;;;;26.13;57.93;97529.45;110308;1241;59722;-74
2023/06/20 07:47:55;;;;;;;;;;;;;;;26.09;57.03;97528.83;110305;1241;59671;-75
2023/06/20 07:50:24;;;;;;;6.70;5.70;;;;;;;26.08;55.88;97529.53;110364;1241;71499;-75
2023/06/20 07:52:53;;;;;;;7.00;6.20;;;;;;;26.16;55.94;97531.55;110409;1241;69416;-75
2023/06/20 07:55:22;;;;;;;6.80;6.10;;;;;;;26.43;54.86;97526.81;110354;1241;68516;-75
2023/06/20 07:57:58;;;;;;;6.30;5.70;;;;;;;26.50;54.94;97528.10;110406;1241;59808;-75
2023/06/20 08:00:28;;;;;;;6.20;5.70;;;;;;;26.76;54.37;97531.41;110241;1240;60091;-74
2023/06/20 08:02:57;;;;;;;5.20;4.70;;;;;;;26.98;52.56;97521.66;110384;1239;71966;-75
2023/06/20 08:05:26;;;;;;;6.60;5.10;;;;;;;27.26;51.53;97525.85;110254;1241;69259;-73
2023/06/20 08:07:56;;;;;;;6.10;5.50;;;;;;;27.51;51.41;97526.33;110279;1240;69267;-72
2023/06/20 08:10:25;;;;;;;5.10;4.60;;;;;;;27.72;49.89;97519.02;110399;1241;59743;-73
2023/06/20 08:12:54;;;;;;;4.90;4.40;;;;;;;27.97;50.72;97520.36;110381;1241;59740;-73
2023/06/20 08:15:23;;;;;;;6.10;5.50;;;;;;;28.11;48.69;97521.63;110283;1241;71873;-77
2023/06/20 08:17:53;;;;;;;5.50;5.00;;;;;;;27.63;46.59;97522.78;110449;1241;69816;-71
2023/06/20 08:20:22;;;;;;;5.70;4.60;;;;;;;27.59;48.21;97524.13;110332;1243;68513;-74
2023/06/20 08:22:52;;;;;;;5.90;5.30;;;;;;;27.44;47.68;97525.80;110436;1241;59796;-69
2023/06/20 08:25:20;;;;;;;4.10;3.70;;;;;;;27.39;47.25;97526.58;110270;1241;59644;-73
2023/06/20 08:27:51;;;;;;;6.00;4.80;;;;;;;27.51;46.55;97520.24;110523;1241;71945;-70
2023/06/20 08:30:40;;;;;;;5.20;4.50;;;;;;;28.03;46.33;97521.27;110247;1241;69881;-70
2023/06/20 08:33:09;;;;;;;5.20;4.60;;;;;;;28.20;47.07;97520.98;110314;1241;69276;-71
2023/06/20 08:35:38;;;;;;;5.00;4.50;;;;;;;28.27;46.48;97520.86;110450;1241;59784;-73
2023/06/20 08:38:09;;;;;;;5.10;4.60;;;;;;;28.66;44.10;97519.67;110330;1241;59675;-70
2023/06/20 08:40:38;;;;;;;4.20;3.80;;;;;;;29.03;42.83;97524.10;110528;1240;71948;-70
2023/06/20 08:43:13;;;;;;;5.20;4.60;;;;;;;29.06;41.89;97525.05;110468;1241;69218;-72
2023/06/20 08:45:44;;;;;;;5.70;5.20;;;;;;;29.47;42.52;97525.58;110531;1241;68534;-73
2023/06/20 08:48:12;;;;;;;5.10;4.60;;;;;;;29.42;42.34;97526.60;110435;1242;59731;-76
2023/06/20 08:50:41;;;;;;;5.70;5.00;;;;;;;29.43;41.49;97525.56;110347;1241;59744;-72
2023/06/20 08:53:11;;;;;;;6.00;4.80;;;;;;;29.29;42.34;97526.83;110221;1240;71954;-73
2023/06/20 08:55:41;;;;;;;5.40;4.80;;;;;;;29.47;43.30;97528.27;110358;1247;69055;-72
2023/06/20 08:58:11;;;;;;;6.40;5.60;;;;;;;29.24;43.50;97524.76;110288;1242;68529;-72
2023/06/20 09:00:40;;;;;;;6.60;6.00;;;;;;;28.89;45.09;97523.78;110674;1242;59708;-74
2023/06/20 09:03:08;;;;;;;6.40;5.80;;;;;;;27.80;48.70;97525.34;110691;1241;59689;-74
2023/06/20 09:05:42;;;;;;;5.30;4.80;;;;;;;28.50;48.55;97521.17;110563;1238;71965;-74
2023/06/20 09:08:14;;;;;;;6.00;5.40;;;;;;;28.85;47.39;97526.15;110553;1240;68251;-76
2023/06/20 09:10:44;;;;;;;5.70;5.20;;;;;;;29.08;45.76;97522.55;110478;1241;69282;-75
2023/06/20 09:13:14;;;;;;;7.60;6.80;;;;;;;29.25;47.32;97517.80;110389;1241;59675;-76
2023/06/20 09:15:43;;;;;;;6.70;6.10;;;;;;;28.65;45.32;97515.07;110518;1241;59689;-74
2023/06/20 09:18:14;;;;;;;6.50;5.90;;;;;;;29.01;45.48;97511.09;110508;1238;71962;-75
2023/06/20 09:20:43;;;;;;;6.80;6.10;;;;;;;28.66;45.80;97508.54;110445;1241;69504;-76
2023/06/20 09:23:28;;;;;;;6.20;5.60;;;;;;;29.28;43.16;97507.86;110430;1240;69682;-74
2023/06/20 09:26:12;;;;;;;5.50;4.60;;;;;;;29.22;43.46;97507.08;110431;1241;59741;-73
2023/06/20 09:28:42;;;;;;;8.70;6.40;;;;;;;29.08;44.92;97504.20;110444;1240;59741;-72
2023/06/20 09:31:14;;;;;;;6.80;6.20;;;;;;;28.96;45.95;97503.39;110404;1241;70924;-75
2023/06/20 09:33:43;;;;;;;7.40;6.50;;;;;;;28.86;45.08;97503.84;110442;1241;69745;-75
2023/06/20 09:36:16;;;;;;;5.60;5.10;;;;;;;28.47;46.34;97502.25;110381;1239;69451;-73
2023/06/20 09:38:52;;;;;;;5.50;5.00;;;;;;;28.78;47.33;97506.20;110418;1241;59750;-76
2023/06/20 09:41:20;;;;;;;5.90;5.30;;;;;;;29.38;45.53;97503.72;110468;1240;59747;-76
2023/06/20 09:43:49;;;;;;;6.40;5.40;;;;;;;29.67;43.51;97498.45;110388;1241;70939;-77
2023/06/20 09:46:18;;;;;;;7.00;6.40;;;;;;;28.53;43.98;97496.58;110443;1241;69092;-76
2023/06/20 09:48:47;;;;;;;;;;;;;;;28.04;44.10;97494.23;110554;1242;69263;-73
2023/06/20 09:51:16;;;;;;;7.10;6.30;;;;;;;27.28;45.71;97498.77;110541;1240;59742;-77
2023/06/20 09:54:02;;;;;;;5.70;5.10;;;;;;;26.97;45.70;97500.10;110472;1241;59631;-75
2023/06/20 09:56:40;;;;;;;6.30;5.70;;;;;;;27.09;46.76;97503.98;110525;1238;71307;-76
2023/06/20 09:59:15;;;;;;;6.10;5.50;;;;;;;27.22;46.89;97501.89;110617;1241;69223;-75
2023/06/20 10:01:44;;;;;;;6.20;4.90;;;;;;;26.97;47.05;97500.35;110545;1240;68484;-75
2023/06/20 10:04:15;;;;;;;6.80;6.20;;;;;;;27.48;46.94;97502.69;110616;1242;60093;-73
2023/06/20 10:06:44;;;;;;;6.90;6.20;;;;;;;27.47;44.50;97503.60;110642;1241;59638;-73
2023/06/20 10:09:15;;;;;;;6.10;5.30;;;;;;;27.15;44.40;97503.66;110657;1239;71979;-73
2023/06/20 10:11:44;;;;;;;5.70;5.10;;;;;;;26.93;43.77;97502.18;110595;1241;69174;-69
2023/06/20 10:14:14;;;;;;;6.30;5.70;;;;;;;27.19;43.82;97503.92;110330;1241;68528;-73
2023/06/20 10:16:51;;;;;;;5.50;4.80;;;;;;;26.87;43.49;97503.23;110363;1241;59680;-72
2023/06/20 10:19:20;;;;;;;6.30;5.70;;;;;;;26.93;43.72;97506.58;110548;1242;59672;-73
2023/06/20 10:21:59;;;;;;;6.30;5.70;;;;;;;27.09;43.61;97507.45;110678;1242;72066;-71
2023/06/20 10:24:30;;;;;;;6.10;4.80;;;;;;;27.00;43.51;97510.14;110525;1239;69313;-71
2023/06/20 10:27:00;;;;;;;5.40;4.90;;;;;;;27.00;42.62;97505.40;110431;1240;67627;-72
2023/06/20 10:29:39;;;;;;;5.60;4.40;;;;;;;27.00;42.07;97506.23;110461;1248;59686;-71
2023/06/20 10:32:13;;;;;;;4.70;4.20;;;;;;;27.09;43.83;97503.64;110418;1240;59681;-72
2023/06/20 10:34:42;;;;;;;5.60;4.50;;;;;;;27.71;44.86;97500.22;110696;1238;71272;-72
2023/06/20 10:37:38;;;;;;;4.90;4.50;;;;;;;28.26;43.58;97496.74;110394;1240;69192;-71
2023/06/20 10:40:10;;;;;;;5.20;4.60;;;;;;;28.83;42.24;97497.84;110499;1242;69089;-72
2023/06/20 10:42:43;;;;;;;6.10;5.20;;;;;;;28.64;40.40;97494.67;110456;1241;59653;-73
2023/06/20 10:45:21;;;;;;;4.30;3.90;;;;;;;28.65;41.68;97490.98;110561;1241;59678;-73
2023/06/20 10:47:51;;;;;;;5.10;4.10;;;;;;;28.32;39.33;97492.30;110575;1241;71409;-72
2023/06/20 10:50:21;;;;;;;4.20;3.80;;;;;;;27.96;40.91;97489.87;110663;1240;69773;-72
2023/06/20 10:52:50;;;;;;;4.60;4.00;;;;;;;27.61;41.11;97480.12;110524;1242;69893;-72
2023/06/20 10:55:29;;;;;;;4.70;4.30;;;;;;;27.76;39.44;97481.44;110503;1241;59781;-72
2023/06/20 10:57:57;;;;;;;5.70;4.90;;;;;;;27.86;39.15;97482.59;110649;1240;59667;-71
2023/06/20 11:00:30;;;;;;;4.50;4.10;;;;;;;27.93;39.69;97474.77;110572;1241;69947;-71
2023/06/20 11:02:59;;;;;;;4.70;3.80;;;;;;;28.01;39.44;97477.96;110549;1242;69766;-72
2023/06/20 11:05:29;;;;;;;;;;;;;;;28.35;38.73;97473.74;110510;1241;69146;-71
2023/06/20 11:08:07;;;;;;;5.00;4.10;;;;;;;28.20;38.05;97477.03;110632;1241;59615;-71
2023/06/20 11:10:37;;;;;;;4.60;4.10;;;;;;;28.37;40.71;97481.18;110563;1241;59745;-71
2023/06/20 11:13:07;;;;;;;4.10;3.60;;;;;;;28.53;40.10;97483.95;110572;1241;71415;-72
2023/06/20 11:15:37;;;;;;;4.70;4.30;;;;;;;28.65;37.64;97484.97;110507;1242;69074;-72
2023/06/20 11:18:07;;;;;;;5.40;4.10;;;;;;;28.81;39.00;97484.77;110402;1241;68302;-70
2023/06/20 11:20:40;;;;;;;5.20;4.70;;;;;;;29.03;37.66;97483.41;110550;1241;59727;-72
2023/06/20 11:23:12;;;;;;;6.00;5.10;;;;;;;28.94;37.49;97486.48;110557;1240;59772;-72
2023/06/20 11:25:43;;;;;;;5.10;4.60;;;;;;;28.19;38.52;97485.01;110497;1240;71733;-70
2023/06/20 11:28:16;;;;;;;4.40;4.00;;;;;;;27.77;42.39;97486.91;110514;1242;69036;-70
2023/06/20 11:30:50;;;;;;;5.20;4.50;;;;;;;27.89;43.73;97492.41;110524;1241;69257;-70
2023/06/20 11:33:20;;;;;;;5.10;4.60;;;;;;;27.81;42.28;97490.56;110518;1240;60220;-70
2023/06/20 11:35:54;;;;;;;4.40;4.00;;;;;;;27.97;40.46;97492.13;110668;1242;59732;-72
2023/06/20 11:38:25;;;;;;;3.80;3.40;;;;;;;27.91;40.67;97491.55;110476;1241;71988;-71
2023/06/20 11:41:03;;;;;;;3.90;3.50;;;;;;;27.84;41.09;97493.69;110653;1247;69804;-72